createdAt,value
2018-10-01T00:00:45.512Z,94786.45
2018-10-01T00:03:14.687Z,94779.67
2018-10-01T00:05:43.991Z,94777.63
2018-10-01T00:08:12.551Z,94774.77
2018-10-01T00:10:41.279Z,94764.27
2018-10-01T00:13:10.222Z,94768.75
2018-10-01T00:15:38.867Z,94766.27
2018-10-01T00:18:07.663Z,94764.37
2018-10-01T00:20:42.078Z,94756.94
2018-10-01T00:23:10.918Z,94753.53
2018-10-01T00:25:39.950Z,94747.27
2018-10-01T00:28:08.937Z,94742.40
2018-10-01T00:30:37.700Z,94740.59
2018-10-01T00:33:06.478Z,94749.50
2018-10-01T00:35:35.247Z,94742.23
2018-10-01T00:38:03.906Z,94735.41
2018-10-01T00:40:32.539Z,94739.03
2018-10-01T00:43:01.266Z,94736.47
2018-10-01T00:45:30.115Z,94732.36
2018-10-01T00:47:58.855Z,94728.30
2018-10-01T00:50:27.666Z,94728.58
2018-10-01T00:52:56.581Z,94725.83
2018-10-01T00:55:25.514Z,94717.05
2018-10-01T00:57:54.972Z,94719.33
2018-10-01T01:00:23.661Z,94706.77
2018-10-01T01:02:52.739Z,94714.61
2018-10-01T01:05:22.030Z,94718.11
2018-10-01T01:07:50.730Z,94709.42
2018-10-01T01:10:19.506Z,94711.48
2018-10-01T01:12:48.447Z,94714.91
2018-10-01T01:15:17.538Z,94704.63
2018-10-01T01:17:46.429Z,94709.66
2018-10-01T01:20:15.508Z,94709.44
2018-10-01T01:22:44.299Z,94705.09
2018-10-01T01:25:13.319Z,94707.81
2018-10-01T01:27:42.304Z,94700.24
2018-10-01T01:30:11.186Z,94702.02
2018-10-01T01:32:40.182Z,94700.43
2018-10-01T01:35:09.094Z,94692.23
2018-10-01T01:37:37.838Z,94693.03
2018-10-01T01:40:06.549Z,94686.81
2018-10-01T01:42:35.574Z,94695.42
2018-10-01T01:45:04.511Z,94689.98
2018-10-01T01:47:33.606Z,94691.10
2018-10-01T01:50:02.923Z,94685.34
2018-10-01T01:52:31.980Z,94689.79
2018-10-01T01:55:00.935Z,94689.86
2018-10-01T01:57:29.943Z,94683.64
2018-10-01T01:59:58.757Z,94685.10
2018-10-01T02:02:27.581Z,94682.17
2018-10-01T02:04:56.819Z,94676.94
2018-10-01T02:07:25.434Z,94676.07
2018-10-01T02:09:54.051Z,94675.67
2018-10-01T02:12:22.710Z,94678.25
2018-10-01T02:14:51.791Z,94679.72
2018-10-01T02:17:20.857Z,94679.52
2018-10-01T02:19:49.756Z,94675.67
2018-10-01T02:22:18.445Z,94680.55
2018-10-01T02:24:47.236Z,94674.95
2018-10-01T02:27:16.153Z,94671.20
2018-10-01T02:29:45.207Z,94665.10
2018-10-01T02:32:14.030Z,94670.16
2018-10-01T02:34:43.128Z,94669.16
2018-10-01T02:37:11.951Z,94665.03
2018-10-01T02:39:40.687Z,94668.82
2018-10-01T02:42:09.638Z,94659.66
2018-10-01T02:44:38.355Z,94660.51
2018-10-01T02:47:07.276Z,94651.56
2018-10-01T02:49:36.366Z,94653.80
2018-10-01T02:52:10.307Z,94645.04
2018-10-01T02:54:39.974Z,94647.17
2018-10-01T02:57:08.927Z,94642.27
2018-10-01T02:59:38.096Z,94637.05
2018-10-01T03:02:07.157Z,94636.31
2018-10-01T03:04:36.145Z,94636.72
2018-10-01T03:07:04.864Z,94640.23
2018-10-01T03:09:33.799Z,94630.77
2018-10-01T03:12:02.562Z,94625.31
2018-10-01T03:14:31.237Z,94632.38
2018-10-01T03:17:00.222Z,94623.92
2018-10-01T03:19:29.073Z,94624.16
2018-10-01T03:21:57.978Z,94624.53
2018-10-01T03:24:27.016Z,94559.16
2018-10-01T03:26:55.840Z,94617.12
2018-10-01T03:29:24.670Z,94609.50
2018-10-01T03:31:54.007Z,94614.77
2018-10-01T03:34:23.027Z,94606.50
2018-10-01T03:36:51.671Z,94603.74
2018-10-01T03:39:21.052Z,94601.94
2018-10-01T03:41:49.771Z,94607.05
2018-10-01T03:44:18.808Z,94604.13
2018-10-01T03:46:47.948Z,94605.62
2018-10-01T03:49:16.600Z,94599.56
2018-10-01T03:51:45.444Z,94597.94
2018-10-01T03:54:14.507Z,94594.82
2018-10-01T03:56:43.347Z,94586.20
2018-10-01T03:59:12.198Z,94588.99
2018-10-01T04:01:41.447Z,94584.77
2018-10-01T04:04:10.198Z,94586.42
2018-10-01T04:06:38.942Z,94581.16
2018-10-01T04:09:08.787Z,94574.81
2018-10-01T04:11:37.522Z,94577.19
2018-10-01T04:14:06.442Z,94567.75
2018-10-01T04:16:36.017Z,94569.84
2018-10-01T04:19:04.834Z,94562.06
2018-10-01T04:21:33.555Z,94561.34
2018-10-01T04:24:02.938Z,94560.66
2018-10-01T04:26:31.646Z,94555.10
2018-10-01T04:29:00.911Z,94559.08
2018-10-01T04:31:30.018Z,94556.78
2018-10-01T04:33:59.066Z,94556.78
2018-10-01T04:36:28.077Z,94541.63
2018-10-01T04:38:57.005Z,94551.53
2018-10-01T04:41:25.944Z,94548.61
2018-10-01T04:43:54.670Z,94544.75
2018-10-01T04:46:23.741Z,94538.97
2018-10-01T04:48:52.549Z,94533.73
2018-10-01T04:51:21.248Z,94537.38
2018-10-01T04:53:50.359Z,94543.95
2018-10-01T04:56:19.427Z,94489.08
2018-10-01T04:58:48.598Z,94538.43
2018-10-01T05:01:17.745Z,94532.72
2018-10-01T05:03:46.698Z,94531.88
2018-10-01T05:06:16.102Z,94533.22
2018-10-01T05:08:45.033Z,94527.48
2018-10-01T05:11:13.763Z,94533.89
2018-10-01T05:13:42.873Z,94525.33
2018-10-01T05:16:12.011Z,94525.25
2018-10-01T05:18:40.918Z,94530.28
2018-10-01T05:21:09.582Z,94530.10
2018-10-01T05:23:38.624Z,94534.25
2018-10-01T05:26:07.451Z,94529.30
2018-10-01T05:28:36.357Z,94528.30
2018-10-01T05:31:05.367Z,94527.89
2018-10-01T05:33:34.386Z,94524.39
2018-10-01T05:36:03.451Z,94524.75
2018-10-01T05:38:32.531Z,94521.32
2018-10-01T05:41:01.172Z,94531.77
2018-10-01T05:43:29.858Z,94533.39
2018-10-01T05:45:58.820Z,94533.72
2018-10-01T05:48:27.685Z,94531.84
2018-10-01T05:50:56.578Z,94529.36
2018-10-01T05:53:25.764Z,94530.47
2018-10-01T05:55:54.967Z,94531.64
2018-10-01T05:58:23.676Z,94530.08
2018-10-01T06:00:52.807Z,94538.95
2018-10-01T06:03:21.487Z,94536.91
2018-10-01T06:05:50.416Z,94536.91
2018-10-01T06:08:19.662Z,94538.70
2018-10-01T06:10:48.255Z,94535.59
2018-10-01T06:13:16.943Z,94547.39
2018-10-01T06:15:45.605Z,94542.67
2018-10-01T06:18:14.386Z,94544.27
2018-10-01T06:20:43.379Z,94535.34
2018-10-01T06:23:12.192Z,94530.38
2018-10-01T06:25:41.255Z,94534.02
2018-10-01T06:28:10.568Z,94541.60
2018-10-01T06:30:39.590Z,94538.44
2018-10-01T06:33:08.814Z,94541.36
2018-10-01T06:35:37.941Z,94544.25
2018-10-01T06:38:07.067Z,94545.05
2018-10-01T06:40:35.689Z,94551.63
2018-10-01T06:43:04.412Z,94546.89
2018-10-01T06:45:33.438Z,94551.87
2018-10-01T06:48:02.406Z,94556.86
2018-10-01T06:50:31.090Z,94554.49
2018-10-01T06:53:01.184Z,94554.98
2018-10-01T06:55:30.636Z,94558.05
2018-10-01T06:57:59.257Z,94557.20
2018-10-01T07:00:28.635Z,94556.18
2018-10-01T07:02:57.824Z,94560.48
2018-10-01T07:05:26.736Z,94566.14
2018-10-01T07:07:55.724Z,94567.11
2018-10-01T07:10:24.423Z,94561.09
2018-10-01T07:12:53.169Z,94562.50
2018-10-01T07:15:22.228Z,94561.92
2018-10-01T07:17:51.181Z,94566.45
2018-10-01T07:20:20.147Z,94564.14
2018-10-01T07:22:49.399Z,94563.31
2018-10-01T07:25:18.322Z,94564.60
2018-10-01T07:27:47.241Z,94561.73
2018-10-01T07:30:16.219Z,94563.91
2018-10-01T07:32:44.905Z,94552.91
2018-10-01T07:35:13.634Z,94560.01
2018-10-01T07:37:42.535Z,94549.77
2018-10-01T07:40:11.279Z,94544.53
2018-10-01T07:42:40.078Z,94545.55
2018-10-01T07:45:08.784Z,94544.67
2018-10-01T07:47:37.682Z,94541.73
2018-10-01T07:50:07.194Z,94544.68
2018-10-01T07:52:36.094Z,94538.89
2018-10-01T07:55:05.472Z,94534.45
2018-10-01T07:57:34.219Z,94538.60
2018-10-01T08:00:03.195Z,94538.72
2018-10-01T08:02:31.663Z,94535.56
2018-10-01T08:05:00.570Z,94532.89
2018-10-01T08:07:30.006Z,94531.00
2018-10-01T08:09:58.679Z,94531.83
2018-10-01T08:12:27.370Z,94521.71
2018-10-01T08:14:56.098Z,94517.33
2018-10-01T08:17:25.073Z,94511.97
2018-10-01T08:19:53.925Z,94511.77
2018-10-01T08:22:22.783Z,94511.47
2018-10-01T08:24:51.766Z,94510.33
2018-10-01T08:27:20.910Z,94506.08
2018-10-01T08:29:49.931Z,94504.17
2018-10-01T08:32:19.007Z,94505.89
2018-10-01T08:34:48.070Z,94501.37
2018-10-01T08:37:16.936Z,94509.12
2018-10-01T08:39:45.654Z,94504.23
2018-10-01T08:42:14.405Z,94499.05
2018-10-01T08:44:42.978Z,94502.34
2018-10-01T08:47:11.705Z,94491.74
2018-10-01T08:49:45.551Z,94491.50
2018-10-01T08:52:26.958Z,94488.73
2018-10-01T08:54:56.143Z,94483.05
2018-10-01T08:57:24.809Z,94482.83
2018-10-01T08:59:53.569Z,94480.09
2018-10-01T09:02:22.465Z,94473.99
2018-10-01T09:04:51.218Z,94471.91
2018-10-01T09:07:20.208Z,94465.35
2018-10-01T09:09:48.840Z,94463.61
2018-10-01T09:12:17.713Z,94467.33
2018-10-01T09:14:46.870Z,94464.59
2018-10-01T09:17:15.949Z,94458.59
2018-10-01T09:19:44.786Z,94452.52
2018-10-01T09:22:13.811Z,94458.98
2018-10-01T09:24:42.862Z,94446.30
2018-10-01T09:27:11.754Z,94448.50
2018-10-01T09:29:40.780Z,94440.99
2018-10-01T09:32:09.460Z,94441.98
2018-10-01T09:34:38.478Z,94440.80
2018-10-01T09:37:07.636Z,94440.91
2018-10-01T09:39:36.468Z,94439.13
2018-10-01T09:42:05.458Z,94433.63
2018-10-01T09:44:34.094Z,94442.84
2018-10-01T09:47:02.940Z,94439.13
2018-10-01T09:49:31.874Z,94430.97
2018-10-01T09:52:00.945Z,94425.88
2018-10-01T09:54:29.662Z,94426.83
2018-10-01T09:56:58.607Z,94423.53
2018-10-01T09:59:27.419Z,94419.20
2018-10-01T10:01:56.516Z,94416.06
2018-10-01T10:04:25.438Z,94412.44
2018-10-01T10:06:54.349Z,94413.30
2018-10-01T10:09:23.203Z,94403.31
2018-10-01T10:11:52.375Z,94401.84
2018-10-01T10:14:21.169Z,94402.98
2018-10-01T10:16:50.381Z,94396.03
2018-10-01T10:19:18.966Z,94392.96
2018-10-01T10:21:47.859Z,94392.58
2018-10-01T10:24:16.610Z,94389.78
2018-10-01T10:26:45.298Z,94388.89
2018-10-01T10:29:14.226Z,94386.19
2018-10-01T10:31:43.069Z,94387.57
2018-10-01T10:34:12.133Z,94378.69
2018-10-01T10:36:40.993Z,94381.31
2018-10-01T10:39:11.863Z,94368.75
2018-10-01T10:41:40.765Z,94369.47
2018-10-01T10:44:09.519Z,94374.20
2018-10-01T10:46:38.307Z,94353.06
2018-10-01T10:49:07.266Z,94354.55
2018-10-01T10:51:36.514Z,94351.11
2018-10-01T10:54:05.139Z,94340.12
2018-10-01T10:56:34.112Z,94338.37
2018-10-01T10:59:03.138Z,94330.59
2018-10-01T11:01:31.930Z,94332.66
2018-10-01T11:04:00.893Z,94316.61
2018-10-01T11:06:29.817Z,94326.33
2018-10-01T11:08:58.779Z,94314.95
2018-10-01T11:11:27.451Z,94315.37
2018-10-01T11:13:56.127Z,94301.56
2018-10-01T11:16:24.707Z,94308.83
2018-10-01T11:18:53.715Z,94303.08
2018-10-01T11:21:22.567Z,94300.92
2018-10-01T11:23:51.679Z,94298.59
2018-10-01T11:26:20.781Z,94291.80
2018-10-01T11:28:49.584Z,94289.91
2018-10-01T11:31:18.758Z,94287.47
2018-10-01T11:33:47.730Z,94286.45
2018-10-01T11:36:16.777Z,94284.63
2018-10-01T11:38:45.714Z,94283.38
2018-10-01T11:41:14.764Z,94282.13
2018-10-01T11:43:43.496Z,94273.26
2018-10-01T11:46:12.367Z,94277.73
2018-10-01T11:48:41.122Z,94275.50
2018-10-01T11:51:10.362Z,94272.28
2018-10-01T11:53:39.335Z,94270.34
2018-10-01T11:56:09.127Z,94266.36
2018-10-01T11:58:38.006Z,94275.40
2018-10-01T12:01:07.226Z,94274.55
2018-10-01T12:03:36.361Z,94265.34
2018-10-01T12:06:05.378Z,94273.91
2018-10-01T12:08:34.228Z,94266.37
2018-10-01T12:11:02.874Z,94266.21
2018-10-01T12:13:31.446Z,94269.35
2018-10-01T12:16:00.267Z,94266.82
2018-10-01T12:18:28.935Z,94267.55
2018-10-01T12:20:57.797Z,94259.66
2018-10-01T12:23:26.857Z,94256.67
2018-10-01T12:25:55.888Z,94248.94
2018-10-01T12:28:24.527Z,94246.41
2018-10-01T12:30:53.355Z,94247.73
2018-10-01T12:33:22.290Z,94249.38
2018-10-01T12:35:51.151Z,94243.27
2018-10-01T12:38:22.874Z,94244.44
2018-10-01T12:40:58.071Z,94243.83
2018-10-01T12:43:27.466Z,94246.33
2018-10-01T12:45:56.236Z,94246.19
2018-10-01T12:48:25.516Z,94243.29
2018-10-01T12:50:54.595Z,94234.28
2018-10-01T12:53:23.220Z,94236.39
2018-10-01T12:55:52.175Z,94236.54
2018-10-01T12:58:21.230Z,94231.81
2018-10-01T13:00:50.083Z,94225.71
2018-10-01T13:03:19.591Z,94226.99
2018-10-01T13:05:48.521Z,94221.20
2018-10-01T13:08:17.160Z,94216.83
2018-10-01T13:10:46.146Z,94215.90
2018-10-01T13:13:15.137Z,94211.44
2018-10-01T13:15:43.850Z,94214.78
2018-10-01T13:18:12.724Z,94214.89
2018-10-01T13:20:41.587Z,94213.09
2018-10-01T13:23:10.558Z,94214.41
2018-10-01T13:25:39.314Z,94220.12
2018-10-01T13:28:08.452Z,94208.09
2018-10-01T13:30:37.582Z,94209.03
2018-10-01T13:33:06.922Z,94204.88
2018-10-01T13:35:35.670Z,94204.52
2018-10-01T13:38:04.354Z,94201.08
2018-10-01T13:40:33.464Z,94200.07
2018-10-01T13:43:02.741Z,94198.66
2018-10-01T13:45:31.547Z,94196.77
2018-10-01T13:48:00.293Z,94189.67
2018-10-01T13:50:29.098Z,94191.79
2018-10-01T13:52:58.221Z,94189.65
2018-10-01T13:55:27.122Z,94191.78
2018-10-01T13:57:56.048Z,94191.63
2018-10-01T14:00:25.141Z,94189.92
2018-10-01T14:02:54.034Z,94180.16
2018-10-01T14:05:22.923Z,94177.75
2018-10-01T14:07:52.158Z,94179.34
2018-10-01T14:10:20.929Z,94178.56
2018-10-01T14:12:49.686Z,94186.80
2018-10-01T14:15:18.411Z,94188.01
2018-10-01T14:17:47.370Z,94189.30
2018-10-01T14:20:16.112Z,94188.09
2018-10-01T14:22:45.011Z,94188.92
2018-10-01T14:25:14.028Z,94184.92
2018-10-01T14:27:43.034Z,94196.62
2018-10-01T14:30:12.116Z,94189.77
2018-10-01T14:32:40.981Z,94201.17
2018-10-01T14:35:09.998Z,94192.27
2018-10-01T14:37:39.445Z,94192.72
2018-10-01T14:40:08.731Z,94188.75
2018-10-01T14:42:37.433Z,94186.63
2018-10-01T14:45:06.845Z,94186.34
2018-10-01T14:47:35.986Z,94190.09
2018-10-01T14:50:04.690Z,94194.99
2018-10-01T14:52:33.398Z,94185.90
2018-10-01T14:55:02.609Z,94185.16
2018-10-01T14:57:31.551Z,94182.05
2018-10-01T15:00:00.561Z,94172.75
2018-10-01T15:02:29.480Z,94189.83
2018-10-01T15:04:58.186Z,94172.63
2018-10-01T15:07:27.161Z,94175.82
2018-10-01T15:09:56.380Z,94164.41
2018-10-01T15:12:25.249Z,94163.33
2018-10-01T15:14:53.934Z,94166.94
2018-10-01T15:17:22.766Z,94166.09
2018-10-01T15:19:51.638Z,94169.71
2018-10-01T15:22:20.576Z,94175.83
2018-10-01T15:24:50.064Z,94189.94
2018-10-01T15:27:19.315Z,94178.95
2018-10-01T15:29:48.269Z,94182.95
2018-10-01T15:32:17.275Z,94175.20
2018-10-01T15:34:46.591Z,94179.81
2018-10-01T15:37:15.590Z,94184.42
2018-10-01T15:39:44.709Z,94185.24
2018-10-01T15:42:13.376Z,94177.41
2018-10-01T15:44:41.989Z,94189.95
2018-10-01T15:47:10.851Z,94179.62
2018-10-01T15:49:39.686Z,94186.01
2018-10-01T15:52:08.589Z,94179.64
2018-10-01T15:54:37.731Z,94192.66
2018-10-01T15:57:06.887Z,94197.78
2018-10-01T15:59:35.822Z,94200.41
2018-10-01T16:02:04.762Z,94201.42
2018-10-01T16:04:33.895Z,94199.55
2018-10-01T16:07:02.765Z,94201.13
2018-10-01T16:09:31.855Z,94206.64
2018-10-01T16:12:00.651Z,94205.95
2018-10-01T16:14:29.738Z,94211.30
2018-10-01T16:16:58.892Z,94214.47
2018-10-01T16:19:27.869Z,94208.75
2018-10-01T16:21:56.654Z,94217.31
2018-10-01T16:24:25.779Z,94223.38
2018-10-01T16:26:54.590Z,94225.19
2018-10-01T16:29:23.291Z,94225.28
2018-10-01T16:31:52.827Z,94228.70
2018-10-01T16:34:21.448Z,94230.13
2018-10-01T16:36:50.270Z,94232.75
2018-10-01T16:39:19.596Z,94243.80
2018-10-01T16:41:48.326Z,94245.47
2018-10-01T16:44:17.084Z,94241.30
2018-10-01T16:46:48.260Z,94246.43
2018-10-01T16:49:17.235Z,94254.01
2018-10-01T16:51:46.413Z,94246.59
2018-10-01T16:54:15.731Z,94255.24
2018-10-01T16:56:44.871Z,94255.81
2018-10-01T16:59:13.658Z,94267.05
2018-10-01T17:01:42.780Z,94264.10
2018-10-01T17:04:11.583Z,94268.24
2018-10-01T17:06:40.350Z,94273.12
2018-10-01T17:09:10.189Z,94275.73
2018-10-01T17:11:38.827Z,94274.14
2018-10-01T17:14:07.491Z,94278.97
2018-10-01T17:16:36.434Z,94278.88
2018-10-01T17:19:05.874Z,94286.81
2018-10-01T17:21:34.824Z,94295.71
2018-10-01T17:24:03.786Z,94307.03
2018-10-01T17:26:32.550Z,94308.66
2018-10-01T17:29:01.344Z,94314.21
2018-10-01T17:31:30.239Z,94316.64
2018-10-01T17:33:59.367Z,94318.37
2018-10-01T17:36:28.730Z,94321.21
2018-10-01T17:38:57.466Z,94320.34
2018-10-01T17:41:26.370Z,94324.65
2018-10-01T17:43:55.024Z,94328.65
2018-10-01T17:46:23.642Z,94337.37
2018-10-01T17:48:52.879Z,94337.09
2018-10-01T17:51:21.796Z,94345.86
2018-10-01T17:53:50.440Z,94339.20
2018-10-01T17:56:19.741Z,94340.99
2018-10-01T17:58:48.804Z,94348.16
2018-10-01T18:01:17.451Z,94339.59
2018-10-01T18:03:46.438Z,94346.66
2018-10-01T18:06:15.242Z,94334.61
2018-10-01T18:08:43.906Z,94336.78
2018-10-01T18:11:12.558Z,94336.63
2018-10-01T18:13:41.579Z,94346.92
2018-10-01T18:16:10.465Z,94347.36
2018-10-01T18:18:39.247Z,94348.46
2018-10-01T18:21:08.171Z,94355.56
2018-10-01T18:23:37.306Z,94348.19
2018-10-01T18:26:06.374Z,94352.94
2018-10-01T18:28:35.538Z,94355.72
2018-10-01T18:31:04.418Z,94358.62
2018-10-01T18:33:33.279Z,94358.45
2018-10-01T18:36:02.405Z,94358.23
2018-10-01T18:38:31.348Z,94360.05
2018-10-01T18:40:59.990Z,94366.22
2018-10-01T18:43:29.052Z,94364.72
2018-10-01T18:45:57.737Z,94362.13
2018-10-01T18:48:26.502Z,94369.19
2018-10-01T18:50:55.766Z,94370.23
2018-10-01T18:53:24.692Z,94380.86
2018-10-01T18:55:53.778Z,94384.64
2018-10-01T18:58:22.671Z,94388.62
2018-10-01T19:00:51.668Z,94383.13
2018-10-01T19:03:20.579Z,94375.42
2018-10-01T19:05:49.682Z,94380.16
2018-10-01T19:08:18.708Z,94379.47
2018-10-01T19:10:47.475Z,94388.09
2018-10-01T19:13:16.448Z,94391.70
2018-10-01T19:15:45.350Z,94390.24
2018-10-01T19:18:14.312Z,94389.23
2018-10-01T19:20:43.221Z,94397.55
2018-10-01T19:23:12.326Z,94387.48
2018-10-01T19:25:41.064Z,94386.95
2018-10-01T19:28:10.478Z,94394.48
2018-10-01T19:30:39.095Z,94394.19
2018-10-01T19:33:08.026Z,94398.47
2018-10-01T19:35:37.180Z,94401.02
2018-10-01T19:38:05.846Z,94394.08
2018-10-01T19:40:34.579Z,94392.06
2018-10-01T19:43:03.555Z,94390.66
2018-10-01T19:45:32.702Z,94397.23
2018-10-01T19:48:01.320Z,94404.06
2018-10-01T19:50:30.654Z,94394.97
2018-10-01T19:53:00.111Z,94398.23
2018-10-01T19:55:28.678Z,94403.03
2018-10-01T19:57:57.504Z,94404.17
2018-10-01T20:00:26.492Z,94404.52
2018-10-01T20:02:55.250Z,94401.90
2018-10-01T20:05:24.172Z,94401.90
2018-10-01T20:07:53.027Z,94402.16
2018-10-01T20:10:21.932Z,94397.95
2018-10-01T20:12:50.546Z,94407.46
2018-10-01T20:15:19.598Z,94414.11
2018-10-01T20:17:49.053Z,94402.33
2018-10-01T20:20:18.604Z,94404.48
2018-10-01T20:22:47.621Z,94412.13
2018-10-01T20:25:16.620Z,94406.65
2018-10-01T20:27:45.712Z,94408.00
2018-10-01T20:30:14.641Z,94408.30
2018-10-01T20:32:43.269Z,94412.82
2018-10-01T20:35:12.439Z,94408.91
2018-10-01T20:37:41.396Z,94407.91
2018-10-01T20:40:10.343Z,94419.50
2018-10-01T20:42:39.178Z,94418.47
2018-10-01T20:45:08.176Z,94414.55
2018-10-01T20:47:36.944Z,94416.67
2018-10-01T20:50:06.326Z,94416.72
2018-10-01T20:52:35.412Z,94419.34
2018-10-01T20:55:04.179Z,94424.08
2018-10-01T20:57:33.410Z,94425.41
2018-10-01T21:00:02.334Z,94439.59
2018-10-01T21:02:31.426Z,94444.59
2018-10-01T21:05:00.641Z,94443.28
2018-10-01T21:07:29.478Z,94443.00
2018-10-01T21:09:58.114Z,94441.44
2018-10-01T21:12:27.108Z,94443.00
2018-10-01T21:14:55.878Z,94447.98
2018-10-01T21:17:24.759Z,94450.91
2018-10-01T21:19:53.352Z,94451.14
2018-10-01T21:22:22.455Z,94451.41
2018-10-01T21:24:51.770Z,94452.22
2018-10-01T21:27:20.744Z,94458.50
2018-10-01T21:29:49.470Z,94452.72
2018-10-01T21:32:18.670Z,94457.19
2018-10-01T21:34:47.427Z,94454.83
2018-10-01T21:37:16.210Z,94448.80
2018-10-01T21:40:17.486Z,94448.55
2018-10-01T21:42:46.531Z,94450.91
2018-10-01T21:45:17.138Z,94455.11
2018-10-01T21:47:46.171Z,94457.44
2018-10-01T21:50:14.965Z,94454.32
2018-10-01T21:52:43.707Z,94457.98
2018-10-01T21:55:12.446Z,94459.02
2018-10-01T21:57:41.483Z,94461.38
2018-10-01T22:00:11.254Z,94456.39
2018-10-01T22:02:40.552Z,94463.73
2018-10-01T22:05:09.549Z,94459.80
2018-10-01T22:07:38.555Z,94459.80
2018-10-01T22:10:07.336Z,94464.25
2018-10-01T22:12:36.028Z,94460.54
2018-10-01T22:15:05.367Z,94461.61
2018-10-01T22:17:34.006Z,94465.03
2018-10-01T22:20:02.743Z,94401.27
2018-10-01T22:22:31.762Z,94469.23
2018-10-01T22:25:00.584Z,94471.08
2018-10-01T22:27:29.407Z,94462.16
2018-10-01T22:29:58.089Z,94466.09
2018-10-01T22:32:27.083Z,94462.97
2018-10-01T22:34:56.147Z,94468.98
2018-10-01T22:37:25.156Z,94472.38
2018-10-01T22:39:53.972Z,94475.55
2018-10-01T22:42:22.739Z,94471.06
2018-10-01T22:44:51.770Z,94480.00
2018-10-01T22:47:20.501Z,94488.89
2018-10-01T22:49:49.259Z,94489.13
2018-10-01T22:52:18.418Z,94497.97
2018-10-01T22:54:47.469Z,94494.56
2018-10-01T22:57:16.403Z,94508.07
2018-10-01T22:59:45.372Z,94508.53
2018-10-01T23:02:14.435Z,94512.58
2018-10-01T23:04:43.441Z,94510.91
2018-10-01T23:07:12.561Z,94516.30
2018-10-01T23:09:41.207Z,94515.64
2018-10-01T23:12:09.850Z,94522.30
2018-10-01T23:14:38.533Z,94514.20
2018-10-01T23:17:07.703Z,94520.41
2018-10-01T23:19:36.489Z,94511.95
2018-10-01T23:22:05.913Z,94508.23
2018-10-01T23:24:34.693Z,94510.89
2018-10-01T23:27:03.428Z,94511.30
2018-10-01T23:29:32.243Z,94499.84
2018-10-01T23:32:01.060Z,94502.12
2018-10-01T23:34:29.872Z,94500.95
2018-10-01T23:36:58.854Z,94513.47
2018-10-01T23:39:27.550Z,94513.78
2018-10-01T23:41:56.226Z,94508.45
2018-10-01T23:44:24.934Z,94507.31
2018-10-01T23:46:53.721Z,94512.86
2018-10-01T23:49:22.511Z,94514.25
2018-10-01T23:51:51.591Z,94522.05
2018-10-01T23:54:20.622Z,94529.34
2018-10-01T23:56:49.455Z,94533.11
2018-10-01T23:59:18.386Z,94540.83
